sensor_id;sensor_type;location;lat;lon;timestamp;P1;durP1;ratioP1;P2;durP2;ratioP2
16272;SDS011;8244;50.044;9.006;2022-09-09T00:00:30;3.92;;;1.52;;
16272;SDS011;8244;50.044;9.006;2022-09-09T00:05:38;5.35;;;1.50;;
16272;SDS011;8244;50.044;9.006;2022-09-09T00:10:46;3.67;;;1.52;;
16272;SDS011;8244;50.044;9.006;2022-09-09T00:15:54;7.43;;;1.80;;
16272;SDS011;8244;50.044;9.006;2022-09-09T00:21:01;2.50;;;1.42;;
16272;SDS011;8244;50.044;9.006;2022-09-09T00:26:10;4.50;;;1.67;;
16272;SDS011;8244;50.044;9.006;2022-09-09T00:31:18;6.10;;;1.55;;
16272;SDS011;8244;50.044;9.006;2022-09-09T00:36:26;2.83;;;1.50;;
16272;SDS011;8244;50.044;9.006;2022-09-09T00:41:33;5.00;;;1.55;;
16272;SDS011;8244;50.044;9.006;2022-09-09T00:46:50;3.90;;;1.30;;
16272;SDS011;8244;50.044;9.006;2022-09-09T00:52:03;4.22;;;1.70;;
16272;SDS011;8244;50.044;9.006;2022-09-09T00:57:25;6.03;;;1.83;;
16272;SDS011;8244;50.044;9.006;2022-09-09T01:02:29;1.85;;;1.30;;
16272;SDS011;8244;50.044;9.006;2022-09-09T01:07:37;5.00;;;1.70;;
16272;SDS011;8244;50.044;9.006;2022-09-09T01:12:42;4.60;;;1.65;;
16272;SDS011;8244;50.044;9.006;2022-09-09T01:17:49;2.50;;;1.55;;
16272;SDS011;8244;50.044;9.006;2022-09-09T01:23:01;9.95;;;2.00;;
16272;SDS011;8244;50.044;9.006;2022-09-09T01:28:19;5.75;;;1.75;;
16272;SDS011;8244;50.044;9.006;2022-09-09T01:33:25;7.38;;;2.05;;
16272;SDS011;8244;50.044;9.006;2022-09-09T01:38:27;6.18;;;2.03;;
16272;SDS011;8244;50.044;9.006;2022-09-09T01:43:31;6.80;;;1.88;;
16272;SDS011;8244;50.044;9.006;2022-09-09T01:48:33;5.15;;;1.90;;
16272;SDS011;8244;50.044;9.006;2022-09-09T01:53:34;6.35;;;1.83;;
16272;SDS011;8244;50.044;9.006;2022-09-09T01:58:40;4.05;;;1.92;;
16272;SDS011;8244;50.044;9.006;2022-09-09T02:03:55;7.00;;;1.90;;
16272;SDS011;8244;50.044;9.006;2022-09-09T02:08:59;7.25;;;1.80;;
16272;SDS011;8244;50.044;9.006;2022-09-09T02:14:04;4.85;;;1.77;;
16272;SDS011;8244;50.044;9.006;2022-09-09T02:19:14;5.57;;;1.83;;
16272;SDS011;8244;50.044;9.006;2022-09-09T02:24:26;5.88;;;1.83;;
16272;SDS011;8244;50.044;9.006;2022-09-09T02:29:31;6.18;;;1.83;;
16272;SDS011;8244;50.044;9.006;2022-09-09T02:34:36;6.25;;;2.10;;
16272;SDS011;8244;50.044;9.006;2022-09-09T02:39:41;4.05;;;1.80;;
16272;SDS011;8244;50.044;9.006;2022-09-09T02:44:44;6.28;;;1.90;;
16272;SDS011;8244;50.044;9.006;2022-09-09T02:49:49;6.05;;;1.85;;
16272;SDS011;8244;50.044;9.006;2022-09-09T02:54:59;4.30;;;1.80;;
16272;SDS011;8244;50.044;9.006;2022-09-09T03:00:10;4.72;;;1.83;;
16272;SDS011;8244;50.044;9.006;2022-09-09T03:05:12;6.90;;;1.83;;
16272;SDS011;8244;50.044;9.006;2022-09-09T03:10:14;5.82;;;2.10;;
16272;SDS011;8244;50.044;9.006;2022-09-09T03:15:17;4.38;;;1.85;;
16272;SDS011;8244;50.044;9.006;2022-09-09T03:20:19;6.25;;;1.90;;
16272;SDS011;8244;50.044;9.006;2022-09-09T03:25:21;5.15;;;2.00;;
16272;SDS011;8244;50.044;9.006;2022-09-09T03:30:25;6.57;;;1.90;;
16272;SDS011;8244;50.044;9.006;2022-09-09T03:35:28;5.38;;;2.20;;
16272;SDS011;8244;50.044;9.006;2022-09-09T03:40:30;5.95;;;2.22;;
16272;SDS011;8244;50.044;9.006;2022-09-09T03:45:33;6.43;;;1.95;;
16272;SDS011;8244;50.044;9.006;2022-09-09T03:50:34;5.88;;;2.22;;
16272;SDS011;8244;50.044;9.006;2022-09-09T03:55:36;3.88;;;1.73;;
16272;SDS011;8244;50.044;9.006;2022-09-09T04:00:39;10.98;;;2.05;;
16272;SDS011;8244;50.044;9.006;2022-09-09T04:05:42;9.95;;;2.22;;
16272;SDS011;8244;50.044;9.006;2022-09-09T04:10:44;7.03;;;2.10;;
16272;SDS011;8244;50.044;9.006;2022-09-09T04:15:51;3.90;;;1.92;;
16272;SDS011;8244;50.044;9.006;2022-09-09T04:20:53;5.25;;;2.17;;
16272;SDS011;8244;50.044;9.006;2022-09-09T04:25:57;6.10;;;2.30;;
16272;SDS011;8244;50.044;9.006;2022-09-09T04:31:05;6.53;;;2.47;;
16272;SDS011;8244;50.044;9.006;2022-09-09T04:36:07;6.93;;;2.08;;
16272;SDS011;8244;50.044;9.006;2022-09-09T04:41:09;5.43;;;2.38;;
16272;SDS011;8244;50.044;9.006;2022-09-09T04:46:13;6.40;;;2.28;;
16272;SDS011;8244;50.044;9.006;2022-09-09T04:51:17;6.85;;;2.20;;
16272;SDS011;8244;50.044;9.006;2022-09-09T04:56:19;6.43;;;2.50;;
16272;SDS011;8244;50.044;9.006;2022-09-09T05:01:22;6.60;;;2.33;;
16272;SDS011;8244;50.044;9.006;2022-09-09T05:06:24;8.23;;;2.60;;
16272;SDS011;8244;50.044;9.006;2022-09-09T05:11:27;8.98;;;2.50;;
16272;SDS011;8244;50.044;9.006;2022-09-09T05:16:31;8.43;;;2.47;;
16272;SDS011;8244;50.044;9.006;2022-09-09T05:21:33;7.70;;;2.60;;
16272;SDS011;8244;50.044;9.006;2022-09-09T05:26:35;8.73;;;2.55;;
16272;SDS011;8244;50.044;9.006;2022-09-09T05:31:38;5.68;;;2.30;;
16272;SDS011;8244;50.044;9.006;2022-09-09T05:36:40;7.65;;;2.53;;
16272;SDS011;8244;50.044;9.006;2022-09-09T05:41:42;11.02;;;3.05;;
16272;SDS011;8244;50.044;9.006;2022-09-09T05:46:45;4.55;;;2.25;;
16272;SDS011;8244;50.044;9.006;2022-09-09T05:51:47;8.60;;;2.05;;
16272;SDS011;8244;50.044;9.006;2022-09-09T05:56:50;8.70;;;2.17;;
16272;SDS011;8244;50.044;9.006;2022-09-09T06:01:54;7.13;;;2.13;;
16272;SDS011;8244;50.044;9.006;2022-09-09T06:06:56;4.88;;;1.85;;
16272;SDS011;8244;50.044;9.006;2022-09-09T06:11:58;7.15;;;1.67;;
16272;SDS011;8244;50.044;9.006;2022-09-09T06:17:01;7.05;;;1.77;;
16272;SDS011;8244;50.044;9.006;2022-09-09T06:22:03;6.07;;;1.80;;
16272;SDS011;8244;50.044;9.006;2022-09-09T06:27:05;2.45;;;1.42;;
16272;SDS011;8244;50.044;9.006;2022-09-09T06:32:08;6.72;;;1.40;;
16272;SDS011;8244;50.044;9.006;2022-09-09T06:37:10;5.65;;;1.70;;
16272;SDS011;8244;50.044;9.006;2022-09-09T06:42:12;7.22;;;1.60;;
16272;SDS011;8244;50.044;9.006;2022-09-09T06:47:17;4.90;;;1.70;;
16272;SDS011;8244;50.044;9.006;2022-09-09T06:52:18;6.95;;;1.45;;
16272;SDS011;8244;50.044;9.006;2022-09-09T06:57:20;5.78;;;1.55;;
16272;SDS011;8244;50.044;9.006;2022-09-09T07:02:23;7.20;;;1.38;;
16272;SDS011;8244;50.044;9.006;2022-09-09T07:07:25;7.13;;;1.52;;
16272;SDS011;8244;50.044;9.006;2022-09-09T07:12:27;7.38;;;1.48;;
16272;SDS011;8244;50.044;9.006;2022-09-09T07:17:30;4.10;;;1.27;;
16272;SDS011;8244;50.044;9.006;2022-09-09T07:22:31;4.45;;;1.50;;
16272;SDS011;8244;50.044;9.006;2022-09-09T07:27:33;4.80;;;1.30;;
16272;SDS011;8244;50.044;9.006;2022-09-09T07:32:36;8.95;;;1.40;;
16272;SDS011;8244;50.044;9.006;2022-09-09T07:37:38;2.90;;;1.20;;
16272;SDS011;8244;50.044;9.006;2022-09-09T07:42:39;5.50;;;1.83;;
16272;SDS011;8244;50.044;9.006;2022-09-09T07:47:43;4.97;;;1.90;;
16272;SDS011;8244;50.044;9.006;2022-09-09T07:52:44;6.43;;;1.60;;
16272;SDS011;8244;50.044;9.006;2022-09-09T07:57:46;3.83;;;1.38;;
16272;SDS011;8244;50.044;9.006;2022-09-09T08:02:49;5.72;;;1.42;;
16272;SDS011;8244;50.044;9.006;2022-09-09T08:07:53;7.03;;;1.60;;
16272;SDS011;8244;50.044;9.006;2022-09-09T08:12:55;8.85;;;1.70;;
16272;SDS011;8244;50.044;9.006;2022-09-09T08:17:58;5.28;;;1.65;;
16272;SDS011;8244;50.044;9.006;2022-09-09T08:23:00;4.20;;;1.48;;
16272;SDS011;8244;50.044;9.006;2022-09-09T08:28:01;5.07;;;1.40;;
16272;SDS011;8244;50.044;9.006;2022-09-09T08:33:04;6.70;;;1.50;;
16272;SDS011;8244;50.044;9.006;2022-09-09T08:38:08;8.20;;;1.70;;
16272;SDS011;8244;50.044;9.006;2022-09-09T08:43:09;6.47;;;1.90;;
16272;SDS011;8244;50.044;9.006;2022-09-09T08:48:16;5.53;;;1.88;;
16272;SDS011;8244;50.044;9.006;2022-09-09T08:53:27;5.90;;;1.52;;
16272;SDS011;8244;50.044;9.006;2022-09-09T08:58:35;8.35;;;1.38;;
16272;SDS011;8244;50.044;9.006;2022-09-09T09:03:48;7.35;;;1.90;;
16272;SDS011;8244;50.044;9.006;2022-09-09T09:08:59;6.85;;;1.60;;
16272;SDS011;8244;50.044;9.006;2022-09-09T09:14:08;7.53;;;1.65;;
16272;SDS011;8244;50.044;9.006;2022-09-09T09:19:15;6.68;;;2.35;;
16272;SDS011;8244;50.044;9.006;2022-09-09T09:24:18;8.07;;;1.80;;
16272;SDS011;8244;50.044;9.006;2022-09-09T09:29:23;5.85;;;1.40;;
16272;SDS011;8244;50.044;9.006;2022-09-09T09:34:27;7.20;;;1.40;;
16272;SDS011;8244;50.044;9.006;2022-09-09T09:39:30;6.65;;;1.50;;
16272;SDS011;8244;50.044;9.006;2022-09-09T09:44:36;9.15;;;1.63;;
16272;SDS011;8244;50.044;9.006;2022-09-09T09:49:39;6.18;;;1.90;;
16272;SDS011;8244;50.044;9.006;2022-09-09T09:54:51;5.38;;;2.13;;
16272;SDS011;8244;50.044;9.006;2022-09-09T10:00:02;6.72;;;1.75;;
16272;SDS011;8244;50.044;9.006;2022-09-09T10:05:14;6.78;;;1.73;;
16272;SDS011;8244;50.044;9.006;2022-09-09T10:10:20;7.38;;;1.90;;
16272;SDS011;8244;50.044;9.006;2022-09-09T10:15:37;6.80;;;1.75;;
16272;SDS011;8244;50.044;9.006;2022-09-09T10:20:49;4.55;;;1.38;;
16272;SDS011;8244;50.044;9.006;2022-09-09T10:26:05;3.13;;;1.35;;
16272;SDS011;8244;50.044;9.006;2022-09-09T10:31:28;8.15;;;2.17;;
16272;SDS011;8244;50.044;9.006;2022-09-09T10:36:41;6.10;;;1.70;;
16272;SDS011;8244;50.044;9.006;2022-09-09T10:41:50;6.80;;;1.80;;
16272;SDS011;8244;50.044;9.006;2022-09-09T10:47:01;7.93;;;2.15;;
16272;SDS011;8244;50.044;9.006;2022-09-09T10:52:19;5.53;;;1.70;;
16272;SDS011;8244;50.044;9.006;2022-09-09T10:57:32;5.72;;;1.80;;
16272;SDS011;8244;50.044;9.006;2022-09-09T11:02:38;5.47;;;1.85;;
16272;SDS011;8244;50.044;9.006;2022-09-09T11:07:44;6.55;;;2.33;;
16272;SDS011;8244;50.044;9.006;2022-09-09T11:12:49;6.32;;;1.95;;
16272;SDS011;8244;50.044;9.006;2022-09-09T11:17:54;5.95;;;1.45;;
16272;SDS011;8244;50.044;9.006;2022-09-09T11:23:01;5.55;;;1.60;;
16272;SDS011;8244;50.044;9.006;2022-09-09T11:28:11;5.07;;;1.50;;
16272;SDS011;8244;50.044;9.006;2022-09-09T11:39:15;4.38;;;1.30;;
16272;SDS011;8244;50.044;9.006;2022-09-09T11:44:33;3.03;;;1.00;;
16272;SDS011;8244;50.044;9.006;2022-09-09T11:49:39;3.58;;;1.10;;
16272;SDS011;8244;50.044;9.006;2022-09-09T11:54:46;4.22;;;1.10;;
16272;SDS011;8244;50.044;9.006;2022-09-09T11:59:50;3.67;;;1.10;;
16272;SDS011;8244;50.044;9.006;2022-09-09T12:04:56;2.08;;;0.95;;
16272;SDS011;8244;50.044;9.006;2022-09-09T12:10:04;3.58;;;1.20;;
16272;SDS011;8244;50.044;9.006;2022-09-09T12:15:24;2.33;;;1.00;;
16272;SDS011;8244;50.044;9.006;2022-09-09T12:20:31;4.93;;;1.10;;
16272;SDS011;8244;50.044;9.006;2022-09-09T12:25:40;3.75;;;1.20;;
16272;SDS011;8244;50.044;9.006;2022-09-09T12:30:54;4.20;;;1.05;;
16272;SDS011;8244;50.044;9.006;2022-09-09T12:36:02;4.25;;;1.10;;
16272;SDS011;8244;50.044;9.006;2022-09-09T12:41:17;4.90;;;1.20;;
16272;SDS011;8244;50.044;9.006;2022-09-09T12:46:23;5.38;;;1.10;;
16272;SDS011;8244;50.044;9.006;2022-09-09T12:51:33;5.47;;;1.23;;
16272;SDS011;8244;50.044;9.006;2022-09-09T12:56:37;6.28;;;1.20;;
16272;SDS011;8244;50.044;9.006;2022-09-09T13:01:39;5.07;;;1.20;;
16272;SDS011;8244;50.044;9.006;2022-09-09T13:06:41;5.25;;;1.15;;
16272;SDS011;8244;50.044;9.006;2022-09-09T13:11:44;4.90;;;1.30;;
16272;SDS011;8244;50.044;9.006;2022-09-09T13:16:54;3.88;;;1.27;;
16272;SDS011;8244;50.044;9.006;2022-09-09T13:21:58;4.35;;;1.13;;
16272;SDS011;8244;50.044;9.006;2022-09-09T13:27:01;3.20;;;1.27;;
16272;SDS011;8244;50.044;9.006;2022-09-09T13:32:05;5.70;;;1.38;;
16272;SDS011;8244;50.044;9.006;2022-09-09T13:37:16;6.28;;;1.75;;
16272;SDS011;8244;50.044;9.006;2022-09-09T13:42:26;5.13;;;1.38;;
16272;SDS011;8244;50.044;9.006;2022-09-09T13:47:31;4.38;;;1.20;;
16272;SDS011;8244;50.044;9.006;2022-09-09T13:52:34;5.35;;;1.20;;
16272;SDS011;8244;50.044;9.006;2022-09-09T13:57:37;4.05;;;1.20;;
16272;SDS011;8244;50.044;9.006;2022-09-09T14:02:38;5.18;;;1.38;;
16272;SDS011;8244;50.044;9.006;2022-09-09T14:07:40;1.73;;;0.70;;
16272;SDS011;8244;50.044;9.006;2022-09-09T14:12:43;3.53;;;1.02;;
16272;SDS011;8244;50.044;9.006;2022-09-09T14:17:46;5.03;;;0.95;;
16272;SDS011;8244;50.044;9.006;2022-09-09T14:22:48;2.20;;;0.85;;
16272;SDS011;8244;50.044;9.006;2022-09-09T14:27:51;3.28;;;0.90;;
16272;SDS011;8244;50.044;9.006;2022-09-09T14:32:53;2.60;;;0.90;;
16272;SDS011;8244;50.044;9.006;2022-09-09T14:37:54;2.58;;;0.90;;
16272;SDS011;8244;50.044;9.006;2022-09-09T14:42:57;4.78;;;1.02;;
16272;SDS011;8244;50.044;9.006;2022-09-09T14:47:59;3.78;;;1.30;;
16272;SDS011;8244;50.044;9.006;2022-09-09T14:53:01;4.15;;;1.40;;
16272;SDS011;8244;50.044;9.006;2022-09-09T14:58:04;5.00;;;0.90;;
16272;SDS011;8244;50.044;9.006;2022-09-09T15:03:06;4.22;;;0.98;;
16272;SDS011;8244;50.044;9.006;2022-09-09T15:08:08;5.13;;;1.20;;
16272;SDS011;8244;50.044;9.006;2022-09-09T15:13:11;5.07;;;1.40;;
16272;SDS011;8244;50.044;9.006;2022-09-09T15:18:13;3.05;;;0.90;;
16272;SDS011;8244;50.044;9.006;2022-09-09T15:23:15;2.58;;;1.05;;
16272;SDS011;8244;50.044;9.006;2022-09-09T15:28:19;2.42;;;0.82;;
16272;SDS011;8244;50.044;9.006;2022-09-09T15:33:21;3.10;;;0.80;;
16272;SDS011;8244;50.044;9.006;2022-09-09T15:38:23;1.88;;;0.60;;
16272;SDS011;8244;50.044;9.006;2022-09-09T15:43:26;1.25;;;0.63;;
16272;SDS011;8244;50.044;9.006;2022-09-09T15:48:29;3.25;;;1.00;;
16272;SDS011;8244;50.044;9.006;2022-09-09T15:53:33;2.28;;;0.90;;
16272;SDS011;8244;50.044;9.006;2022-09-09T15:58:36;3.55;;;1.00;;
16272;SDS011;8244;50.044;9.006;2022-09-09T16:03:38;3.95;;;0.82;;
16272;SDS011;8244;50.044;9.006;2022-09-09T16:08:43;4.50;;;1.10;;
16272;SDS011;8244;50.044;9.006;2022-09-09T16:13:48;2.42;;;1.17;;
16272;SDS011;8244;50.044;9.006;2022-09-09T16:18:52;2.67;;;1.15;;
16272;SDS011;8244;50.044;9.006;2022-09-09T16:23:55;2.28;;;1.02;;
16272;SDS011;8244;50.044;9.006;2022-09-09T16:29:00;3.17;;;1.00;;
16272;SDS011;8244;50.044;9.006;2022-09-09T16:34:03;3.97;;;0.90;;
16272;SDS011;8244;50.044;9.006;2022-09-09T16:39:06;5.95;;;1.67;;
16272;SDS011;8244;50.044;9.006;2022-09-09T16:44:11;2.85;;;0.88;;
16272;SDS011;8244;50.044;9.006;2022-09-09T16:49:15;2.70;;;1.00;;
16272;SDS011;8244;50.044;9.006;2022-09-09T16:54:17;2.17;;;1.00;;
16272;SDS011;8244;50.044;9.006;2022-09-09T16:59:21;3.17;;;1.30;;
16272;SDS011;8244;50.044;9.006;2022-09-09T17:04:24;2.72;;;1.20;;
16272;SDS011;8244;50.044;9.006;2022-09-09T17:09:28;3.33;;;1.00;;
16272;SDS011;8244;50.044;9.006;2022-09-09T17:14:32;4.25;;;1.92;;
16272;SDS011;8244;50.044;9.006;2022-09-09T17:19:34;2.85;;;1.20;;
16272;SDS011;8244;50.044;9.006;2022-09-09T17:24:36;4.97;;;1.33;;
16272;SDS011;8244;50.044;9.006;2022-09-09T17:29:39;3.67;;;1.00;;
16272;SDS011;8244;50.044;9.006;2022-09-09T17:34:41;2.50;;;0.85;;
16272;SDS011;8244;50.044;9.006;2022-09-09T17:39:43;4.35;;;1.35;;
16272;SDS011;8244;50.044;9.006;2022-09-09T17:44:46;2.72;;;1.10;;
16272;SDS011;8244;50.044;9.006;2022-09-09T17:49:47;2.03;;;1.20;;
16272;SDS011;8244;50.044;9.006;2022-09-09T17:54:49;2.45;;;0.90;;
16272;SDS011;8244;50.044;9.006;2022-09-09T17:59:52;3.60;;;1.10;;
16272;SDS011;8244;50.044;9.006;2022-09-09T18:04:54;3.17;;;1.05;;
16272;SDS011;8244;50.044;9.006;2022-09-09T18:09:56;3.25;;;1.10;;
16272;SDS011;8244;50.044;9.006;2022-09-09T18:14:59;3.00;;;1.30;;
16272;SDS011;8244;50.044;9.006;2022-09-09T18:20:01;2.42;;;1.00;;
16272;SDS011;8244;50.044;9.006;2022-09-09T18:25:03;3.72;;;1.30;;
16272;SDS011;8244;50.044;9.006;2022-09-09T18:30:07;6.55;;;1.30;;
16272;SDS011;8244;50.044;9.006;2022-09-09T18:35:10;4.93;;;1.65;;
16272;SDS011;8244;50.044;9.006;2022-09-09T18:40:11;5.18;;;1.50;;
16272;SDS011;8244;50.044;9.006;2022-09-09T18:45:15;3.33;;;1.20;;
16272;SDS011;8244;50.044;9.006;2022-09-09T18:50:17;2.03;;;1.00;;
16272;SDS011;8244;50.044;9.006;2022-09-09T18:55:19;4.15;;;1.13;;
16272;SDS011;8244;50.044;9.006;2022-09-09T19:00:22;3.67;;;1.40;;
16272;SDS011;8244;50.044;9.006;2022-09-09T19:05:23;6.65;;;2.70;;
16272;SDS011;8244;50.044;9.006;2022-09-09T19:10:26;2.85;;;1.20;;
16272;SDS011;8244;50.044;9.006;2022-09-09T19:15:31;1.85;;;1.20;;
16272;SDS011;8244;50.044;9.006;2022-09-09T19:20:36;2.85;;;1.23;;
16272;SDS011;8244;50.044;9.006;2022-09-09T19:25:37;4.18;;;1.40;;
16272;SDS011;8244;50.044;9.006;2022-09-09T19:30:40;3.50;;;1.40;;
16272;SDS011;8244;50.044;9.006;2022-09-09T19:35:55;4.55;;;1.40;;
16272;SDS011;8244;50.044;9.006;2022-09-09T19:41:01;3.63;;;1.55;;
16272;SDS011;8244;50.044;9.006;2022-09-09T19:46:06;3.33;;;1.65;;
16272;SDS011;8244;50.044;9.006;2022-09-09T19:51:11;2.72;;;1.27;;
16272;SDS011;8244;50.044;9.006;2022-09-09T19:56:14;5.00;;;1.55;;
16272;SDS011;8244;50.044;9.006;2022-09-09T20:01:18;3.08;;;1.75;;
16272;SDS011;8244;50.044;9.006;2022-09-09T20:06:22;2.85;;;1.20;;
16272;SDS011;8244;50.044;9.006;2022-09-09T20:11:25;3.33;;;1.30;;
16272;SDS011;8244;50.044;9.006;2022-09-09T20:16:29;1.80;;;1.00;;
16272;SDS011;8244;50.044;9.006;2022-09-09T20:21:32;3.10;;;1.48;;
16272;SDS011;8244;50.044;9.006;2022-09-09T20:26:35;2.28;;;1.08;;
16272;SDS011;8244;50.044;9.006;2022-09-09T20:31:38;1.67;;;1.05;;
16272;SDS011;8244;50.044;9.006;2022-09-09T20:36:42;3.85;;;1.20;;
16272;SDS011;8244;50.044;9.006;2022-09-09T20:41:45;3.70;;;1.02;;
16272;SDS011;8244;50.044;9.006;2022-09-09T20:46:48;3.33;;;1.20;;
16272;SDS011;8244;50.044;9.006;2022-09-09T20:51:52;2.17;;;1.00;;
16272;SDS011;8244;50.044;9.006;2022-09-09T20:56:54;3.22;;;1.13;;
16272;SDS011;8244;50.044;9.006;2022-09-09T21:01:57;0.85;;;0.82;;
16272;SDS011;8244;50.044;9.006;2022-09-09T21:06:59;3.42;;;1.10;;
16272;SDS011;8244;50.044;9.006;2022-09-09T21:12:01;3.47;;;1.33;;
16272;SDS011;8244;50.044;9.006;2022-09-09T21:17:04;3.00;;;1.38;;
16272;SDS011;8244;50.044;9.006;2022-09-09T21:22:06;1.23;;;1.10;;
16272;SDS011;8244;50.044;9.006;2022-09-09T21:27:08;3.15;;;1.10;;
16272;SDS011;8244;50.044;9.006;2022-09-09T21:32:11;3.20;;;1.00;;
16272;SDS011;8244;50.044;9.006;2022-09-09T21:37:12;1.50;;;1.10;;
16272;SDS011;8244;50.044;9.006;2022-09-09T21:42:14;1.08;;;0.98;;
16272;SDS011;8244;50.044;9.006;2022-09-09T21:47:17;1.02;;;0.98;;
16272;SDS011;8244;50.044;9.006;2022-09-09T21:52:19;0.90;;;0.70;;
16272;SDS011;8244;50.044;9.006;2022-09-09T21:57:20;3.65;;;1.00;;
16272;SDS011;8244;50.044;9.006;2022-09-09T22:02:23;3.72;;;1.00;;
16272;SDS011;8244;50.044;9.006;2022-09-09T22:07:27;2.08;;;1.02;;
16272;SDS011;8244;50.044;9.006;2022-09-09T22:12:28;2.25;;;1.20;;
16272;SDS011;8244;50.044;9.006;2022-09-09T22:17:31;3.22;;;1.23;;
16272;SDS011;8244;50.044;9.006;2022-09-09T22:22:33;1.60;;;0.90;;
16272;SDS011;8244;50.044;9.006;2022-09-09T22:27:35;2.72;;;1.20;;
16272;SDS011;8244;50.044;9.006;2022-09-09T22:32:38;1.13;;;1.02;;
16272;SDS011;8244;50.044;9.006;2022-09-09T22:37:40;3.17;;;0.98;;
16272;SDS011;8244;50.044;9.006;2022-09-09T22:42:41;3.75;;;1.30;;
16272;SDS011;8244;50.044;9.006;2022-09-09T22:47:44;2.95;;;1.08;;
16272;SDS011;8244;50.044;9.006;2022-09-09T22:52:46;2.25;;;1.00;;
16272;SDS011;8244;50.044;9.006;2022-09-09T22:57:48;3.00;;;1.20;;
16272;SDS011;8244;50.044;9.006;2022-09-09T23:02:51;2.90;;;1.27;;
16272;SDS011;8244;50.044;9.006;2022-09-09T23:07:55;3.22;;;1.15;;
16272;SDS011;8244;50.044;9.006;2022-09-09T23:12:57;2.65;;;1.30;;
16272;SDS011;8244;50.044;9.006;2022-09-09T23:18:00;3.90;;;1.50;;
16272;SDS011;8244;50.044;9.006;2022-09-09T23:23:02;2.08;;;1.20;;
16272;SDS011;8244;50.044;9.006;2022-09-09T23:28:04;3.90;;;1.55;;
16272;SDS011;8244;50.044;9.006;2022-09-09T23:33:07;3.78;;;1.50;;
16272;SDS011;8244;50.044;9.006;2022-09-09T23:38:08;2.55;;;1.20;;
16272;SDS011;8244;50.044;9.006;2022-09-09T23:43:10;4.00;;;1.40;;
16272;SDS011;8244;50.044;9.006;2022-09-09T23:48:13;2.80;;;1.02;;
16272;SDS011;8244;50.044;9.006;2022-09-09T23:53:15;2.00;;;1.20;;
16272;SDS011;8244;50.044;9.006;2022-09-09T23:58:17;3.83;;;1.20;;
